createdAt,value
2023-07-14T00:00:21.904Z,2.80
2023-07-14T00:03:25.148Z,2.58
2023-07-14T00:06:28.126Z,2.95
2023-07-14T00:09:33.281Z,2.62
2023-07-14T00:12:35.989Z,2.50
2023-07-14T00:15:40.854Z,3.25
2023-07-14T00:18:43.676Z,2.60
2023-07-14T00:21:47.982Z,2.75
2023-07-14T00:24:50.792Z,2.95
2023-07-14T00:27:56.145Z,2.80
2023-07-14T00:30:59.228Z,2.97
2023-07-14T00:34:02.903Z,2.55
2023-07-14T00:37:05.880Z,2.92
2023-07-14T00:40:17.447Z,3.28
2023-07-14T00:43:31.213Z,3.00
2023-07-14T00:46:36.957Z,3.10
2023-07-14T00:49:42.940Z,2.87
2023-07-14T00:52:50.398Z,3.00
2023-07-14T00:56:10.839Z,2.67
2023-07-14T00:59:18.584Z,2.70
2023-07-14T01:02:26.572Z,3.30
2023-07-14T01:05:32.608Z,3.08
2023-07-14T01:08:42.827Z,3.03
2023-07-14T01:11:56.005Z,2.80
2023-07-14T01:15:03.254Z,3.10
2023-07-14T01:18:11.198Z,2.92
2023-07-14T01:21:23.157Z,3.40
2023-07-14T01:24:43.153Z,3.28
2023-07-14T01:27:50.056Z,3.20
2023-07-14T01:30:57.186Z,3.17
2023-07-14T01:34:04.121Z,3.15
2023-07-14T01:37:10.563Z,3.37
2023-07-14T01:40:19.810Z,3.20
2023-07-14T01:43:26.249Z,3.00
2023-07-14T01:46:31.689Z,3.35
2023-07-14T01:49:43.645Z,3.90
2023-07-14T01:52:52.959Z,3.83
2023-07-14T01:56:00.369Z,3.37
2023-07-14T01:59:27.373Z,3.20
2023-07-14T02:02:37.546Z,3.70
2023-07-14T02:05:42.019Z,3.60
2023-07-14T02:08:48.966Z,3.42
2023-07-14T02:11:57.926Z,3.55
2023-07-14T02:15:11.835Z,3.30
2023-07-14T02:18:21.218Z,3.70
2023-07-14T02:21:31.896Z,3.22
2023-07-14T02:24:37.696Z,3.35
2023-07-14T02:27:44.706Z,3.40
2023-07-14T02:30:55.401Z,3.40
2023-07-14T02:33:59.221Z,3.58
2023-07-14T02:37:29.643Z,3.37
2023-07-14T02:41:12.046Z,3.28
2023-07-14T02:44:19.227Z,2.97
2023-07-14T02:47:26.794Z,3.00
2023-07-14T02:50:31.368Z,3.37
2023-07-14T02:53:35.497Z,3.15
2023-07-14T02:56:44.246Z,2.97
2023-07-14T02:59:48.981Z,3.40
2023-07-14T03:02:56.118Z,3.15
2023-07-14T03:06:00.374Z,3.10
2023-07-14T03:09:04.902Z,3.55
2023-07-14T03:12:11.017Z,3.20
2023-07-14T03:15:17.521Z,3.05
2023-07-14T03:18:23.296Z,3.08
2023-07-14T03:21:29.473Z,3.30
2023-07-14T03:24:33.436Z,3.30
2023-07-14T03:27:38.180Z,3.35
2023-07-14T03:30:44.562Z,3.35
2023-07-14T03:33:49.562Z,3.05
2023-07-14T03:36:53.547Z,3.55
2023-07-14T03:39:58.436Z,2.95
2023-07-14T03:43:04.863Z,3.28
2023-07-14T03:46:09.811Z,3.30
2023-07-14T03:49:14.520Z,3.20
2023-07-14T03:52:25.264Z,3.45
2023-07-14T03:55:33.125Z,3.28
2023-07-14T03:58:40.411Z,3.30
2023-07-14T04:01:45.382Z,3.10
2023-07-14T04:04:53.197Z,2.97
2023-07-14T04:07:57.551Z,3.08
2023-07-14T04:11:02.568Z,3.67
2023-07-14T04:14:08.754Z,3.42
2023-07-14T04:17:14.563Z,3.35
2023-07-14T04:20:19.292Z,3.30
2023-07-14T04:23:24.959Z,3.25
2023-07-14T04:26:30.731Z,3.28
2023-07-14T04:29:35.530Z,3.25
2023-07-14T04:32:39.874Z,3.50
2023-07-14T04:35:44.711Z,3.40
2023-07-14T04:39:09.924Z,3.65
2023-07-14T04:42:14.688Z,3.60
2023-07-14T04:45:19.620Z,3.10
2023-07-14T04:48:24.567Z,3.40
2023-07-14T04:51:29.058Z,3.65
2023-07-14T04:54:33.702Z,3.50
2023-07-14T04:57:37.517Z,3.75
2023-07-14T05:00:44.605Z,3.80
2023-07-14T05:03:48.504Z,3.78
2023-07-14T05:06:52.771Z,4.18
2023-07-14T05:09:57.743Z,4.15
2023-07-14T05:13:02.216Z,4.00
2023-07-14T05:16:06.154Z,3.67
2023-07-14T05:19:17.616Z,4.35
2023-07-14T05:22:22.475Z,3.87
2023-07-14T05:25:27.103Z,4.22
2023-07-14T05:28:31.509Z,3.97
2023-07-14T05:31:37.441Z,4.78
2023-07-14T05:34:46.861Z,4.75
2023-07-14T05:37:52.792Z,4.40
2023-07-14T05:40:58.782Z,4.85
2023-07-14T05:44:05.762Z,4.50
2023-07-14T05:47:11.001Z,4.32
2023-07-14T05:50:16.434Z,4.37
2023-07-14T05:53:21.200Z,4.05
2023-07-14T05:56:25.885Z,4.22
2023-07-14T05:59:30.032Z,3.85
2023-07-14T06:02:34.498Z,3.60
2023-07-14T06:05:38.640Z,3.40
2023-07-14T06:08:43.650Z,3.20
2023-07-14T06:11:48.110Z,3.15
2023-07-14T06:14:52.224Z,2.87
2023-07-14T06:17:56.387Z,2.90
2023-07-14T06:21:00.515Z,3.03
2023-07-14T06:24:04.487Z,2.95
2023-07-14T06:27:11.436Z,3.08
2023-07-14T06:30:15.332Z,2.75
2023-07-14T06:33:19.320Z,2.87
2023-07-14T06:36:23.427Z,2.85
2023-07-14T06:39:27.031Z,2.90
2023-07-14T06:42:30.860Z,2.70
2023-07-14T06:45:36.137Z,3.20
2023-07-14T06:48:40.867Z,3.75
2023-07-14T06:51:45.721Z,3.05
2023-07-14T06:54:50.605Z,3.00
2023-07-14T06:57:54.157Z,3.03
2023-07-14T07:00:58.442Z,2.62
2023-07-14T07:04:02.875Z,2.70
2023-07-14T07:07:09.968Z,2.10
2023-07-14T07:10:13.453Z,2.50
2023-07-14T07:13:17.350Z,2.40
2023-07-14T07:16:20.710Z,2.80
2023-07-14T07:19:24.815Z,2.47
2023-07-14T07:22:28.332Z,2.40
2023-07-14T07:25:32.018Z,2.45
2023-07-14T07:28:35.741Z,2.85
2023-07-14T07:31:40.536Z,2.22
2023-07-14T07:34:43.797Z,2.55
2023-07-14T07:37:47.454Z,2.30
2023-07-14T07:40:51.476Z,1.90
2023-07-14T07:43:56.281Z,2.10
2023-07-14T07:47:00.322Z,2.30
2023-07-14T07:50:04.924Z,2.10
2023-07-14T07:53:08.307Z,2.10
2023-07-14T07:56:13.476Z,1.95
2023-07-14T07:59:17.182Z,2.10
2023-07-14T08:02:21.174Z,3.15
2023-07-14T08:05:25.754Z,2.10
2023-07-14T08:08:30.266Z,2.10
2023-07-14T08:11:35.311Z,1.90
2023-07-14T08:14:52.194Z,1.73
2023-07-14T08:17:56.972Z,2.22
2023-07-14T08:21:00.832Z,1.60
2023-07-14T08:24:06.116Z,1.67
2023-07-14T08:27:10.452Z,1.70
2023-07-14T08:30:15.041Z,1.98
2023-07-14T08:33:19.506Z,1.85
2023-07-14T08:36:23.886Z,1.75
2023-07-14T08:39:28.228Z,1.50
2023-07-14T08:42:40.509Z,1.80
2023-07-14T08:46:01.117Z,1.90
2023-07-14T08:49:22.307Z,1.90
2023-07-14T08:52:28.857Z,1.70
2023-07-14T08:55:40.928Z,1.98
2023-07-14T08:58:47.002Z,1.90
2023-07-14T09:02:03.549Z,1.60
2023-07-14T09:05:28.151Z,1.67
2023-07-14T09:08:36.189Z,3.20
2023-07-14T09:12:10.012Z,1.92
2023-07-14T09:15:23.814Z,2.03
2023-07-14T09:19:02.743Z,2.00
2023-07-14T09:22:19.238Z,1.92
2023-07-14T09:25:51.528Z,2.17
2023-07-14T09:28:56.556Z,1.83
2023-07-14T09:32:20.031Z,1.60
2023-07-14T09:35:26.170Z,1.70
2023-07-14T09:38:44.926Z,1.62
2023-07-14T09:41:51.845Z,1.60
2023-07-14T09:45:02.427Z,1.73
2023-07-14T09:48:21.676Z,1.92
2023-07-14T09:51:24.964Z,1.85
2023-07-14T09:54:28.106Z,1.70
2023-07-14T09:57:40.036Z,1.70
2023-07-14T10:00:44.691Z,1.77
2023-07-14T10:03:56.113Z,1.70
2023-07-14T10:07:28.391Z,1.90
2023-07-14T10:10:35.211Z,1.92
2023-07-14T10:13:38.305Z,1.70
2023-07-14T10:16:46.477Z,1.95
2023-07-14T10:19:51.969Z,2.00
2023-07-14T10:22:59.000Z,1.90
2023-07-14T10:26:05.621Z,2.20
2023-07-14T10:29:17.384Z,2.07
2023-07-14T10:32:26.410Z,1.92
2023-07-14T10:35:33.076Z,1.95
2023-07-14T10:38:52.165Z,2.00
2023-07-14T10:41:56.334Z,2.08
2023-07-14T10:44:59.960Z,1.90
2023-07-14T10:48:12.566Z,1.67
2023-07-14T10:51:41.851Z,1.92
2023-07-14T10:55:14.303Z,1.85
2023-07-14T10:58:29.489Z,1.60
2023-07-14T11:01:42.393Z,1.90
2023-07-14T11:05:11.625Z,1.90
2023-07-14T11:08:14.948Z,1.65
2023-07-14T11:11:38.706Z,1.67
2023-07-14T11:15:01.073Z,1.50
2023-07-14T11:18:36.718Z,1.58
2023-07-14T11:22:16.025Z,1.77
2023-07-14T11:26:02.666Z,1.90
2023-07-14T11:29:17.230Z,1.60
2023-07-14T11:32:25.170Z,1.70
2023-07-14T11:35:50.909Z,1.73
2023-07-14T11:39:02.092Z,1.60
2023-07-14T11:42:15.741Z,1.52
2023-07-14T11:45:22.712Z,1.50
2023-07-14T11:48:44.898Z,1.60
2023-07-14T11:51:53.776Z,1.70
2023-07-14T11:55:32.729Z,1.60
2023-07-14T11:58:35.823Z,1.52
2023-07-14T12:01:46.892Z,1.90
2023-07-14T12:05:28.884Z,1.60
2023-07-14T12:08:43.157Z,1.60
2023-07-14T12:11:54.718Z,1.90
2023-07-14T12:14:57.469Z,2.03
2023-07-14T12:18:38.172Z,1.50
2023-07-14T12:21:47.170Z,1.40
2023-07-14T12:24:52.120Z,1.50
2023-07-14T12:27:55.702Z,1.60
2023-07-14T12:31:02.146Z,1.92
2023-07-14T12:34:07.723Z,1.55
2023-07-14T12:37:17.071Z,1.77
2023-07-14T12:40:24.228Z,2.03
2023-07-14T12:43:35.452Z,1.70
2023-07-14T12:46:40.018Z,2.00
2023-07-14T12:49:48.119Z,2.03
2023-07-14T12:52:51.916Z,1.83
2023-07-14T12:55:55.063Z,1.83
2023-07-14T12:59:00.611Z,2.12
2023-07-14T13:02:04.370Z,2.10
2023-07-14T13:05:14.979Z,1.90
2023-07-14T13:08:24.669Z,1.90
2023-07-14T13:11:40.380Z,2.10
2023-07-14T13:15:02.532Z,1.85
2023-07-14T13:18:15.840Z,1.95
2023-07-14T13:21:48.700Z,2.20
2023-07-14T13:25:04.628Z,1.98
2023-07-14T13:28:33.930Z,1.90
2023-07-14T13:31:44.273Z,2.15
2023-07-14T13:34:52.088Z,1.80
2023-07-14T13:38:06.953Z,2.08
2023-07-14T13:41:18.597Z,1.60
2023-07-14T13:44:38.301Z,1.60
2023-07-14T13:47:51.222Z,1.77
2023-07-14T13:50:54.504Z,1.48
2023-07-14T13:53:58.310Z,1.60
2023-07-14T13:57:00.906Z,1.35
2023-07-14T14:00:05.068Z,1.40
2023-07-14T14:03:12.075Z,1.70
2023-07-14T14:06:15.539Z,1.58
2023-07-14T14:09:22.160Z,1.65
2023-07-14T14:12:25.196Z,1.70
2023-07-14T14:15:34.152Z,1.50
2023-07-14T14:18:37.439Z,1.80
2023-07-14T14:21:40.171Z,1.70
2023-07-14T14:24:43.315Z,1.73
2023-07-14T14:27:47.618Z,1.48
2023-07-14T14:30:56.939Z,1.70
2023-07-14T14:34:00.204Z,1.35
2023-07-14T14:37:03.185Z,2.10
2023-07-14T14:40:06.383Z,1.60
2023-07-14T14:43:30.742Z,1.70
2023-07-14T14:46:34.230Z,1.85
2023-07-14T14:49:37.612Z,1.70
2023-07-14T14:52:40.162Z,1.60
2023-07-14T14:55:44.804Z,2.03
2023-07-14T14:58:47.758Z,1.42
2023-07-14T15:01:50.991Z,1.92
2023-07-14T15:04:53.841Z,1.58
2023-07-14T15:07:57.533Z,1.62
2023-07-14T15:11:00.458Z,1.45
2023-07-14T15:14:09.265Z,1.70
2023-07-14T15:17:24.109Z,1.42
2023-07-14T15:20:28.560Z,1.85
2023-07-14T15:23:31.289Z,1.80
2023-07-14T15:26:36.938Z,1.40
2023-07-14T15:29:39.904Z,1.67
2023-07-14T15:32:43.429Z,1.48
2023-07-14T15:35:57.189Z,1.70
2023-07-14T15:39:03.491Z,1.60
2023-07-14T15:42:12.662Z,1.65
2023-07-14T15:45:22.453Z,1.58
2023-07-14T15:48:40.987Z,1.40
2023-07-14T15:51:47.125Z,1.80
2023-07-14T15:54:49.885Z,1.75
2023-07-14T15:57:53.185Z,1.70
2023-07-14T16:00:57.927Z,1.80
2023-07-14T16:04:02.493Z,1.75
2023-07-14T16:07:05.907Z,1.60
2023-07-14T16:10:16.560Z,1.80
2023-07-14T16:13:19.294Z,1.83
2023-07-14T16:16:22.790Z,1.90
2023-07-14T16:19:25.732Z,1.83
2023-07-14T16:22:28.800Z,1.95
2023-07-14T16:25:32.596Z,2.00
2023-07-14T16:28:35.599Z,1.80
2023-07-14T16:31:39.552Z,2.20
2023-07-14T16:34:42.709Z,2.17
2023-07-14T16:37:49.969Z,2.20
2023-07-14T16:40:53.018Z,2.35
2023-07-14T16:43:57.546Z,2.60
2023-07-14T16:47:03.937Z,2.30
2023-07-14T16:50:11.388Z,2.15
2023-07-14T16:53:19.662Z,2.42
2023-07-14T16:56:22.394Z,2.30
2023-07-14T16:59:25.530Z,2.58
2023-07-14T17:02:28.548Z,2.20
2023-07-14T17:05:34.055Z,2.60
2023-07-14T17:08:36.956Z,2.53
2023-07-14T17:11:40.498Z,2.60
2023-07-14T17:14:43.512Z,2.60
2023-07-14T17:17:47.554Z,2.50
2023-07-14T17:20:52.097Z,2.80
2023-07-14T17:23:57.793Z,2.58
2023-07-14T17:27:00.951Z,2.65
2023-07-14T17:30:16.466Z,2.70
2023-07-14T17:33:19.361Z,2.67
2023-07-14T17:36:25.318Z,2.53
2023-07-14T17:39:44.415Z,2.65
2023-07-14T17:42:50.722Z,2.83
2023-07-14T17:45:53.613Z,3.62
2023-07-14T17:49:00.792Z,2.95
2023-07-14T17:52:04.777Z,2.65
2023-07-14T17:55:19.279Z,2.97
2023-07-14T17:58:26.357Z,2.97
2023-07-14T18:01:29.855Z,4.15
2023-07-14T18:04:33.559Z,2.62
2023-07-14T18:07:36.279Z,3.10
2023-07-14T18:10:39.423Z,2.78
2023-07-14T18:13:44.334Z,3.33
2023-07-14T18:16:47.661Z,2.90
2023-07-14T18:19:50.546Z,2.75
2023-07-14T18:22:55.777Z,2.67
2023-07-14T18:25:59.403Z,2.22
2023-07-14T18:29:02.442Z,2.45
2023-07-14T18:32:10.460Z,2.08
2023-07-14T18:35:25.462Z,2.28
2023-07-14T18:38:31.231Z,2.28
2023-07-14T18:41:34.793Z,2.58
2023-07-14T18:44:37.800Z,2.67
2023-07-14T18:47:41.082Z,2.22
2023-07-14T18:50:43.992Z,2.42
2023-07-14T18:53:48.224Z,3.05
2023-07-14T18:56:52.341Z,2.80
2023-07-14T18:59:55.289Z,2.78
2023-07-14T19:02:59.333Z,3.03
2023-07-14T19:06:05.305Z,2.90
2023-07-14T19:09:17.197Z,2.60
2023-07-14T19:12:23.435Z,2.65
2023-07-14T19:15:26.149Z,3.00
2023-07-14T19:18:29.272Z,2.75
2023-07-14T19:21:33.039Z,2.75
2023-07-14T19:24:38.494Z,3.00
2023-07-14T19:27:41.862Z,3.28
2023-07-14T19:30:45.530Z,3.25
2023-07-14T19:33:49.782Z,2.97
2023-07-14T19:36:53.132Z,3.08
2023-07-14T19:39:56.699Z,2.72
2023-07-14T19:42:59.910Z,2.87
2023-07-14T19:46:02.710Z,3.08
2023-07-14T19:49:05.847Z,3.10
2023-07-14T19:52:10.814Z,3.12
2023-07-14T19:55:27.609Z,3.03
2023-07-14T19:58:31.282Z,3.15
2023-07-14T20:01:34.380Z,3.17
2023-07-14T20:04:37.826Z,3.37
2023-07-14T20:07:40.683Z,3.50
2023-07-14T20:10:45.238Z,3.10
2023-07-14T20:13:49.197Z,3.47
2023-07-14T20:16:52.185Z,3.10
2023-07-14T20:19:54.890Z,3.42
2023-07-14T20:22:59.035Z,3.35
2023-07-14T20:26:02.041Z,3.37
2023-07-14T20:29:05.136Z,3.37
2023-07-14T20:32:13.197Z,3.60
2023-07-14T20:35:22.589Z,3.67
2023-07-14T20:38:26.151Z,3.80
2023-07-14T20:41:31.497Z,3.50
2023-07-14T20:44:34.322Z,3.55
2023-07-14T20:47:42.574Z,4.10
2023-07-14T20:50:46.488Z,3.90
2023-07-14T20:53:49.739Z,4.03
2023-07-14T20:56:52.434Z,3.22
2023-07-14T20:59:55.788Z,3.30
2023-07-14T21:02:58.473Z,3.70
2023-07-14T21:06:02.922Z,3.58
2023-07-14T21:09:05.872Z,3.90
2023-07-14T21:12:17.111Z,3.85
2023-07-14T21:15:19.730Z,4.47
2023-07-14T21:18:30.733Z,4.28
2023-07-14T21:21:36.405Z,4.30
2023-07-14T21:24:40.277Z,4.62
2023-07-14T21:27:43.153Z,4.78
2023-07-14T21:30:47.845Z,4.72
2023-07-14T21:33:50.728Z,4.60
2023-07-14T21:36:53.950Z,4.85
2023-07-14T21:39:57.461Z,5.40
2023-07-14T21:43:00.847Z,5.22
2023-07-14T21:46:04.274Z,5.30
2023-07-14T21:49:16.146Z,4.65
2023-07-14T21:52:22.743Z,5.07
2023-07-14T21:55:25.859Z,4.78
2023-07-14T21:58:33.739Z,3.85
2023-07-14T22:01:39.636Z,4.00
2023-07-14T22:04:43.071Z,4.07
2023-07-14T22:07:45.983Z,4.30
2023-07-14T22:10:52.425Z,3.87
2023-07-14T22:13:55.020Z,4.00
2023-07-14T22:16:58.336Z,4.03
2023-07-14T22:20:00.949Z,4.12
2023-07-14T22:23:04.933Z,4.32
2023-07-14T22:26:17.022Z,3.92
2023-07-14T22:29:19.960Z,4.40
2023-07-14T22:32:24.450Z,4.03
2023-07-14T22:35:27.490Z,3.97
2023-07-14T22:38:33.981Z,4.30
2023-07-14T22:41:40.482Z,4.10
2023-07-14T22:44:43.204Z,3.87
2023-07-14T22:47:47.204Z,3.72
2023-07-14T22:50:55.047Z,3.58
2023-07-14T22:53:59.592Z,3.62
2023-07-14T22:57:03.686Z,3.90
2023-07-14T23:00:11.053Z,3.70
2023-07-14T23:03:30.005Z,3.90
2023-07-14T23:06:33.134Z,3.80
2023-07-14T23:09:36.403Z,4.37
2023-07-14T23:12:40.023Z,3.90
2023-07-14T23:15:43.094Z,4.10
2023-07-14T23:18:46.129Z,3.97
2023-07-14T23:21:49.308Z,4.20
2023-07-14T23:24:52.375Z,4.15
2023-07-14T23:27:55.067Z,4.07
2023-07-14T23:30:58.348Z,3.92
2023-07-14T23:34:01.849Z,4.05
2023-07-14T23:37:05.316Z,3.97
2023-07-14T23:40:10.406Z,3.60
2023-07-14T23:43:22.935Z,3.97
2023-07-14T23:46:26.635Z,3.78
2023-07-14T23:49:30.073Z,4.00
2023-07-14T23:52:33.120Z,4.10
2023-07-14T23:55:36.204Z,3.70
2023-07-14T23:58:39.410Z,3.80
